createdAt,value
2023-04-28T00:00:30.549Z,1012.91
2023-04-28T00:01:30.524Z,1012.91
2023-04-28T00:02:30.594Z,1012.89
2023-04-28T00:03:30.585Z,1012.86
2023-04-28T00:04:30.696Z,1012.85
2023-04-28T00:05:30.503Z,1012.86
2023-04-28T00:06:30.519Z,1012.83
2023-04-28T00:07:30.410Z,1012.84
2023-04-28T00:08:30.434Z,1012.78
2023-04-28T00:09:30.430Z,1012.78
2023-04-28T00:10:30.455Z,1012.77
2023-04-28T00:11:30.388Z,1012.73
2023-04-28T00:12:30.349Z,1012.70
2023-04-28T00:13:30.351Z,1012.67
2023-04-28T00:14:30.436Z,1012.67
2023-04-28T00:15:30.366Z,1012.62
2023-04-28T00:16:30.362Z,1012.59
2023-04-28T00:17:30.305Z,1012.64
2023-04-28T00:18:30.337Z,1012.61
2023-04-28T00:19:30.239Z,1012.59
2023-04-28T00:20:30.267Z,1012.58
2023-04-28T00:21:30.230Z,1012.55
2023-04-28T00:22:30.232Z,1012.57
2023-04-28T00:23:30.278Z,1012.53
2023-04-28T00:24:30.233Z,1012.50
2023-04-28T00:25:30.248Z,1012.47
2023-04-28T00:26:30.194Z,1012.44
2023-04-28T00:27:30.172Z,1012.44
2023-04-28T00:28:34.497Z,1012.42
2023-04-28T00:29:30.171Z,1012.41
2023-04-28T00:30:30.124Z,1012.42
2023-04-28T00:31:30.199Z,1012.36
2023-04-28T00:32:30.110Z,1012.38
2023-04-28T00:33:30.135Z,1012.32
2023-04-28T00:34:30.062Z,1012.30
2023-04-28T00:35:30.062Z,1012.27
2023-04-28T00:36:30.111Z,1012.21
2023-04-28T00:37:30.065Z,1012.23
2023-04-28T00:38:30.011Z,1012.18
2023-04-28T00:39:30.020Z,1012.23
2023-04-28T00:40:30.014Z,1012.18
2023-04-28T00:41:29.984Z,1012.20
2023-04-28T00:42:30.014Z,1012.23
2023-04-28T00:43:29.978Z,1012.23
2023-04-28T00:44:29.980Z,1012.20
2023-04-28T00:45:30.005Z,1012.16
2023-04-28T00:46:29.908Z,1012.19
2023-04-28T00:47:29.937Z,1012.16
2023-04-28T00:48:29.937Z,1012.12
2023-04-28T00:49:29.877Z,1012.11
2023-04-28T00:50:29.858Z,1012.12
2023-04-28T00:51:29.886Z,1012.15
2023-04-28T00:52:29.883Z,1012.14
2023-04-28T00:53:29.865Z,1012.15
2023-04-28T00:54:29.815Z,1012.20
2023-04-28T00:55:29.888Z,1012.22
2023-04-28T00:56:29.799Z,1012.21
2023-04-28T00:57:29.890Z,1012.16
2023-04-28T00:58:29.798Z,1012.21
2023-04-28T00:59:29.744Z,1012.19
2023-04-28T01:00:29.728Z,1012.21
2023-04-28T01:01:29.733Z,1012.18
2023-04-28T01:02:29.815Z,1012.16
2023-04-28T01:03:29.867Z,1012.10
2023-04-28T01:04:29.918Z,1012.09
2023-04-28T01:05:29.663Z,1012.03
2023-04-28T01:06:29.668Z,1012.04
2023-04-28T01:07:29.652Z,1012.07
2023-04-28T01:08:29.815Z,1012.09
2023-04-28T01:09:29.632Z,1012.10
2023-04-28T01:10:29.614Z,1012.16
2023-04-28T01:11:29.631Z,1012.16
2023-04-28T01:12:29.570Z,1012.16
2023-04-28T01:13:29.610Z,1012.15
2023-04-28T01:14:29.553Z,1012.13
2023-04-28T01:15:29.558Z,1012.10
2023-04-28T01:16:29.578Z,1012.09
2023-04-28T01:17:29.592Z,1012.05
2023-04-28T01:18:29.510Z,1012.03
2023-04-28T01:19:29.506Z,1012.05
2023-04-28T01:20:29.505Z,1012.00
2023-04-28T01:21:29.440Z,1011.96
2023-04-28T01:22:29.467Z,1011.96
2023-04-28T01:23:29.482Z,1011.94
2023-04-28T01:24:29.430Z,1011.97
2023-04-28T01:25:29.417Z,1011.98
2023-04-28T01:26:29.455Z,1011.96
2023-04-28T01:27:29.412Z,1011.97
2023-04-28T01:28:29.404Z,1011.99
2023-04-28T01:29:29.367Z,1011.96
2023-04-28T01:30:29.375Z,1011.94
2023-04-28T01:31:29.381Z,1011.92
2023-04-28T01:32:29.567Z,1011.97
2023-04-28T01:33:29.341Z,1011.98
2023-04-28T01:34:29.368Z,1011.97
2023-04-28T01:35:29.789Z,1012.00
2023-04-28T01:36:29.264Z,1012.00
2023-04-28T01:37:29.288Z,1012.00
2023-04-28T01:38:29.255Z,1011.97
2023-04-28T01:39:29.230Z,1011.98
2023-04-28T01:40:29.198Z,1011.95
2023-04-28T01:41:29.216Z,1011.97
2023-04-28T01:42:29.174Z,1011.95
2023-04-28T01:43:29.238Z,1012.01
2023-04-28T01:44:29.184Z,1012.00
2023-04-28T01:45:29.200Z,1012.02
2023-04-28T01:46:29.204Z,1012.03
2023-04-28T01:47:29.188Z,1012.03
2023-04-28T01:48:29.133Z,1012.01
2023-04-28T01:49:29.126Z,1012.05
2023-04-28T01:50:29.134Z,1012.03
2023-04-28T01:51:29.066Z,1011.98
2023-04-28T01:52:29.111Z,1011.99
2023-04-28T01:53:29.066Z,1012.02
2023-04-28T01:54:29.050Z,1011.97
2023-04-28T01:55:29.026Z,1011.94
2023-04-28T01:56:29.021Z,1012.01
2023-04-28T01:57:29.045Z,1011.90
2023-04-28T01:58:29.017Z,1011.92
2023-04-28T01:59:28.962Z,1011.86
2023-04-28T02:00:29.014Z,1011.86
2023-04-28T02:01:28.997Z,1011.86
2023-04-28T02:02:28.999Z,1011.81
2023-04-28T02:03:29.210Z,1011.88
2023-04-28T02:04:29.035Z,1011.90
2023-04-28T02:05:28.893Z,1011.86
2023-04-28T02:06:28.906Z,1011.88
2023-04-28T02:07:28.903Z,1011.83
2023-04-28T02:08:28.884Z,1011.81
2023-04-28T02:09:28.844Z,1011.80
2023-04-28T02:10:28.903Z,1011.82
2023-04-28T02:11:28.828Z,1011.81
2023-04-28T02:12:28.837Z,1011.78
2023-04-28T02:13:28.841Z,1011.77
2023-04-28T02:14:28.817Z,1011.75
2023-04-28T02:15:28.799Z,1011.76
2023-04-28T02:16:28.856Z,1011.67
2023-04-28T02:17:28.814Z,1011.68
2023-04-28T02:18:28.784Z,1011.68
2023-04-28T02:19:28.781Z,1011.66
2023-04-28T02:20:29.620Z,1011.68
2023-04-28T02:21:28.736Z,1011.65
2023-04-28T02:22:28.737Z,1011.64
2023-04-28T02:23:28.707Z,1011.63
2023-04-28T02:24:28.709Z,1011.64
2023-04-28T02:25:28.687Z,1011.62
2023-04-28T02:26:28.652Z,1011.62
2023-04-28T02:27:28.675Z,1011.60
2023-04-28T02:28:28.647Z,1011.60
2023-04-28T02:29:28.639Z,1011.57
2023-04-28T02:30:28.603Z,1011.58
2023-04-28T02:31:28.659Z,1011.59
2023-04-28T02:32:28.623Z,1011.57
2023-04-28T02:33:28.621Z,1011.66
2023-04-28T02:34:28.586Z,1011.64
2023-04-28T02:35:28.539Z,1011.67
2023-04-28T02:36:28.542Z,1011.68
2023-04-28T02:37:28.538Z,1011.71
2023-04-28T02:38:28.514Z,1011.70
2023-04-28T02:39:28.510Z,1011.74
2023-04-28T02:40:28.469Z,1011.67
2023-04-28T02:41:28.477Z,1011.68
2023-04-28T02:42:28.447Z,1011.69
2023-04-28T02:43:28.431Z,1011.69
2023-04-28T02:44:28.448Z,1011.63
2023-04-28T02:45:28.420Z,1011.66
2023-04-28T02:46:28.475Z,1011.66
2023-04-28T02:47:28.418Z,1011.61
2023-04-28T02:48:28.384Z,1011.60
2023-04-28T02:49:28.369Z,1011.59
2023-04-28T02:50:28.403Z,1011.57
2023-04-28T02:51:28.343Z,1011.57
2023-04-28T02:52:28.370Z,1011.59
2023-04-28T02:53:28.317Z,1011.56
2023-04-28T02:54:28.305Z,1011.50
2023-04-28T02:55:28.333Z,1011.50
2023-04-28T02:56:28.285Z,1011.46
2023-04-28T02:57:28.265Z,1011.48
2023-04-28T02:58:28.235Z,1011.49
2023-04-28T02:59:28.242Z,1011.49
2023-04-28T03:00:28.229Z,1011.47
2023-04-28T03:01:28.269Z,1011.48
2023-04-28T03:02:28.278Z,1011.48
2023-04-28T03:03:28.260Z,1011.48
2023-04-28T03:04:28.211Z,1011.52
2023-04-28T03:05:28.155Z,1011.54
2023-04-28T03:06:28.159Z,1011.51
2023-04-28T03:07:28.144Z,1011.49
2023-04-28T03:08:28.176Z,1011.49
2023-04-28T03:09:28.131Z,1011.49
2023-04-28T03:10:28.136Z,1011.51
2023-04-28T03:11:28.078Z,1011.50
2023-04-28T03:12:28.134Z,1011.48
2023-04-28T03:13:28.054Z,1011.52
2023-04-28T03:14:28.056Z,1011.49
2023-04-28T03:15:28.077Z,1011.50
2023-04-28T03:16:28.058Z,1011.51
2023-04-28T03:17:28.080Z,1011.46
2023-04-28T03:18:28.038Z,1011.48
2023-04-28T03:19:28.012Z,1011.46
2023-04-28T03:20:27.967Z,1011.44
2023-04-28T03:21:28.045Z,1011.37
2023-04-28T03:22:27.973Z,1011.37
2023-04-28T03:23:27.956Z,1011.31
2023-04-28T03:24:27.952Z,1011.33
2023-04-28T03:25:27.921Z,1011.29
2023-04-28T03:26:27.936Z,1011.23
2023-04-28T03:27:27.920Z,1011.22
2023-04-28T03:28:27.874Z,1011.25
2023-04-28T03:29:27.850Z,1011.23
2023-04-28T03:30:27.895Z,1011.22
2023-04-28T03:31:27.868Z,1011.19
2023-04-28T03:32:27.892Z,1011.18
2023-04-28T03:33:27.933Z,1011.16
2023-04-28T03:34:27.865Z,1011.11
2023-04-28T03:35:27.792Z,1011.10
2023-04-28T03:36:27.864Z,1011.10
2023-04-28T03:37:27.754Z,1011.10
2023-04-28T03:38:27.762Z,1011.10
2023-04-28T03:39:27.767Z,1011.05
2023-04-28T03:40:27.776Z,1011.04
2023-04-28T03:41:27.715Z,1011.01
2023-04-28T03:42:27.771Z,1011.01
2023-04-28T03:43:27.720Z,1010.97
2023-04-28T03:44:27.715Z,1010.89
2023-04-28T03:45:27.721Z,1010.88
2023-04-28T03:46:27.869Z,1010.86
2023-04-28T03:47:27.667Z,1010.84
2023-04-28T03:48:27.692Z,1010.82
2023-04-28T03:49:27.665Z,1010.81
2023-04-28T03:50:27.641Z,1010.78
2023-04-28T03:51:27.624Z,1010.78
2023-04-28T03:52:27.632Z,1010.81
2023-04-28T03:53:27.565Z,1010.80
2023-04-28T03:54:27.575Z,1010.79
2023-04-28T03:55:27.683Z,1010.78
2023-04-28T03:56:27.555Z,1010.73
2023-04-28T03:57:27.558Z,1010.73
2023-04-28T03:58:27.542Z,1010.70
2023-04-28T03:59:28.825Z,1010.68
2023-04-28T04:00:27.478Z,1010.67
2023-04-28T04:01:28.037Z,1010.60
2023-04-28T04:02:27.537Z,1010.60
2023-04-28T04:03:27.738Z,1010.55
2023-04-28T04:04:27.782Z,1010.57
2023-04-28T04:05:27.499Z,1010.52
2023-04-28T04:06:27.440Z,1010.51
2023-04-28T04:07:27.451Z,1010.50
2023-04-28T04:08:28.841Z,1010.44
2023-04-28T04:09:27.414Z,1010.45
2023-04-28T04:10:27.376Z,1010.44
2023-04-28T04:11:27.332Z,1010.43
2023-04-28T04:12:27.332Z,1010.38
2023-04-28T04:13:27.343Z,1010.35
2023-04-28T04:14:27.357Z,1010.35
2023-04-28T04:15:27.359Z,1010.34
2023-04-28T04:16:27.380Z,1010.34
2023-04-28T04:17:27.343Z,1010.36
2023-04-28T04:18:27.394Z,1010.44
2023-04-28T04:19:27.325Z,1010.51
2023-04-28T04:20:27.260Z,1010.54
2023-04-28T04:21:27.239Z,1010.65
2023-04-28T04:22:27.247Z,1010.67
2023-04-28T04:23:27.223Z,1010.71
2023-04-28T04:24:36.423Z,1010.67
2023-04-28T04:25:27.213Z,1010.67
2023-04-28T04:26:27.182Z,1010.64
2023-04-28T04:27:27.281Z,1010.65
2023-04-28T04:28:27.190Z,1010.65
2023-04-28T04:29:27.205Z,1010.63
2023-04-28T04:30:27.198Z,1010.63
2023-04-28T04:31:27.233Z,1010.61
2023-04-28T04:32:27.204Z,1010.66
2023-04-28T04:33:27.163Z,1010.62
2023-04-28T04:34:27.316Z,1010.60
2023-04-28T04:35:28.524Z,1010.54
2023-04-28T04:36:27.294Z,1010.55
2023-04-28T04:37:27.064Z,1010.54
2023-04-28T04:38:28.482Z,1010.56
2023-04-28T04:39:28.320Z,1010.54
2023-04-28T04:40:27.095Z,1010.56
2023-04-28T04:41:27.062Z,1010.57
2023-04-28T04:42:27.030Z,1010.57
2023-04-28T04:43:28.513Z,1010.57
2023-04-28T04:44:27.000Z,1010.56
2023-04-28T04:45:28.414Z,1010.53
2023-04-28T04:46:27.663Z,1010.55
2023-04-28T04:47:26.994Z,1010.51
2023-04-28T04:48:28.193Z,1010.49
2023-04-28T04:49:26.984Z,1010.51
2023-04-28T04:50:26.884Z,1010.49
2023-04-28T04:51:26.914Z,1010.47
2023-04-28T04:52:26.871Z,1010.46
2023-04-28T04:53:26.895Z,1010.41
2023-04-28T04:54:26.840Z,1010.41
2023-04-28T04:55:26.878Z,1010.39
2023-04-28T04:56:26.847Z,1010.38
2023-04-28T04:57:26.796Z,1010.36
2023-04-28T04:58:26.887Z,1010.33
2023-04-28T04:59:26.848Z,1010.34
2023-04-28T05:00:28.254Z,1010.28
2023-04-28T05:01:26.806Z,1010.28
2023-04-28T05:02:26.840Z,1010.27
2023-04-28T05:03:26.980Z,1010.30
2023-04-28T05:04:26.840Z,1010.28
2023-04-28T05:05:28.345Z,1010.30
2023-04-28T05:06:27.088Z,1010.33
2023-04-28T05:07:27.064Z,1010.29
2023-04-28T05:08:27.717Z,1010.32
2023-04-28T05:09:26.683Z,1010.29
2023-04-28T05:10:26.649Z,1010.27
2023-04-28T05:11:26.759Z,1010.29
2023-04-28T05:12:26.679Z,1010.32
2023-04-28T05:13:26.580Z,1010.36
2023-04-28T05:14:26.663Z,1010.33
2023-04-28T05:15:26.562Z,1010.33
2023-04-28T05:16:26.624Z,1010.30
2023-04-28T05:17:26.598Z,1010.28
2023-04-28T05:18:27.506Z,1010.25
2023-04-28T05:19:26.614Z,1010.28
2023-04-28T05:20:26.631Z,1010.22
2023-04-28T05:21:26.549Z,1010.21
2023-04-28T05:22:26.524Z,1010.24
2023-04-28T05:23:26.592Z,1010.22
2023-04-28T05:24:26.481Z,1010.20
2023-04-28T05:25:26.599Z,1010.22
2023-04-28T05:26:26.417Z,1010.21
2023-04-28T05:27:26.527Z,1010.18
2023-04-28T05:28:26.452Z,1010.18
2023-04-28T05:29:26.692Z,1010.16
2023-04-28T05:30:26.436Z,1010.16
2023-04-28T05:31:26.469Z,1010.12
2023-04-28T05:32:26.444Z,1010.12
2023-04-28T05:33:26.353Z,1010.08
2023-04-28T05:34:26.318Z,1010.08
2023-04-28T05:35:26.354Z,1010.11
2023-04-28T05:36:26.370Z,1010.10
2023-04-28T05:37:26.305Z,1010.04
2023-04-28T05:38:26.282Z,1010.06
2023-04-28T05:39:26.273Z,1010.04
2023-04-28T05:40:26.229Z,1010.02
2023-04-28T05:41:26.238Z,1009.99
2023-04-28T05:42:26.195Z,1009.96
2023-04-28T05:43:26.256Z,1009.95
2023-04-28T05:44:26.231Z,1009.97
2023-04-28T05:45:26.186Z,1009.98
2023-04-28T05:46:30.544Z,1010.01
2023-04-28T05:47:26.171Z,1010.02
2023-04-28T05:48:26.158Z,1010.01
2023-04-28T05:49:26.180Z,1010.02
2023-04-28T05:50:26.150Z,1010.02
2023-04-28T05:51:26.112Z,1010.02
2023-04-28T05:52:26.074Z,1010.03
2023-04-28T05:53:26.168Z,1010.02
2023-04-28T05:54:26.066Z,1010.02
2023-04-28T05:55:26.072Z,1010.01
2023-04-28T05:56:26.103Z,1010.01
2023-04-28T05:57:25.984Z,1010.01
2023-04-28T05:58:26.046Z,1010.04
2023-04-28T05:59:25.976Z,1010.03
2023-04-28T06:00:26.001Z,1010.03
2023-04-28T06:01:25.961Z,1010.06
2023-04-28T06:02:27.894Z,1010.03
2023-04-28T06:03:25.965Z,1010.06
2023-04-28T06:04:26.653Z,1010.07
2023-04-28T06:05:26.746Z,1010.03
2023-04-28T06:06:26.007Z,1009.98
2023-04-28T06:07:25.860Z,1010.03
2023-04-28T06:08:25.858Z,1010.03
2023-04-28T06:09:25.879Z,1010.00
2023-04-28T06:10:25.834Z,1010.02
2023-04-28T06:11:25.841Z,1010.04
2023-04-28T06:12:25.801Z,1010.03
2023-04-28T06:13:25.775Z,1010.05
2023-04-28T06:14:25.801Z,1010.00
2023-04-28T06:15:25.835Z,1010.03
2023-04-28T06:16:25.833Z,1009.99
2023-04-28T06:17:25.769Z,1009.98
2023-04-28T06:18:25.800Z,1009.93
2023-04-28T06:19:25.688Z,1009.91
2023-04-28T06:20:25.701Z,1009.91
2023-04-28T06:21:25.707Z,1009.89
2023-04-28T06:22:25.667Z,1009.85
2023-04-28T06:23:25.658Z,1009.86
2023-04-28T06:24:25.618Z,1009.86
2023-04-28T06:25:25.686Z,1009.86
2023-04-28T06:26:25.609Z,1009.85
2023-04-28T06:27:25.628Z,1009.84
2023-04-28T06:28:25.561Z,1009.83
2023-04-28T06:29:25.684Z,1009.81
2023-04-28T06:30:25.668Z,1009.82
2023-04-28T06:31:25.628Z,1009.85
2023-04-28T06:32:25.548Z,1009.86
2023-04-28T06:33:27.229Z,1009.84
2023-04-28T06:34:25.524Z,1009.87
2023-04-28T06:35:25.519Z,1009.84
2023-04-28T06:36:25.685Z,1009.87
2023-04-28T06:37:25.463Z,1009.89
2023-04-28T06:38:25.438Z,1009.88
2023-04-28T06:39:25.414Z,1009.94
2023-04-28T06:40:25.431Z,1009.91
2023-04-28T06:41:25.415Z,1009.87
2023-04-28T06:42:26.947Z,1009.87
2023-04-28T06:43:25.381Z,1009.86
2023-04-28T06:44:25.333Z,1009.90
2023-04-28T06:45:25.379Z,1009.85
2023-04-28T06:46:25.407Z,1009.85
2023-04-28T06:47:25.409Z,1009.84
2023-04-28T06:48:25.443Z,1009.80
2023-04-28T06:49:25.317Z,1009.76
2023-04-28T06:50:25.286Z,1009.70
2023-04-28T06:51:25.250Z,1009.65
2023-04-28T06:52:33.087Z,1009.63
2023-04-28T06:53:26.246Z,1009.66
2023-04-28T06:54:25.318Z,1009.66
2023-04-28T06:55:25.249Z,1009.65
2023-04-28T06:56:25.188Z,1009.62
2023-04-28T06:57:25.186Z,1009.60
2023-04-28T06:58:25.177Z,1009.55
2023-04-28T06:59:25.147Z,1009.52
2023-04-28T07:00:25.115Z,1009.52
2023-04-28T07:01:34.374Z,1009.51
2023-04-28T07:02:25.240Z,1009.55
2023-04-28T07:03:25.204Z,1009.57
2023-04-28T07:04:25.163Z,1009.63
2023-04-28T07:05:25.035Z,1009.62
2023-04-28T07:06:25.112Z,1009.58
2023-04-28T07:07:25.006Z,1009.59
2023-04-28T07:08:25.061Z,1009.58
2023-04-28T07:09:25.031Z,1009.58
2023-04-28T07:10:24.993Z,1009.56
2023-04-28T07:11:24.965Z,1009.57
2023-04-28T07:12:24.945Z,1009.58
2023-04-28T07:13:24.983Z,1009.55
2023-04-28T07:14:25.008Z,1009.53
2023-04-28T07:15:24.891Z,1009.50
2023-04-28T07:16:24.971Z,1009.51
2023-04-28T07:17:25.156Z,1009.53
2023-04-28T07:18:24.867Z,1009.46
2023-04-28T07:19:24.840Z,1009.42
2023-04-28T07:20:24.936Z,1009.47
2023-04-28T07:21:24.827Z,1009.45
2023-04-28T07:22:24.796Z,1009.39
2023-04-28T07:23:24.807Z,1009.44
2023-04-28T07:24:24.825Z,1009.43
2023-04-28T07:25:24.951Z,1009.44
2023-04-28T07:26:24.765Z,1009.43
2023-04-28T07:27:24.764Z,1009.46
2023-04-28T07:28:24.765Z,1009.47
2023-04-28T07:29:24.696Z,1009.48
2023-04-28T07:30:28.135Z,1009.49
2023-04-28T07:31:24.721Z,1009.54
2023-04-28T07:32:24.725Z,1009.51
2023-04-28T07:33:24.639Z,1009.54
2023-04-28T07:34:25.292Z,1009.58
2023-04-28T07:35:24.643Z,1009.60
2023-04-28T07:36:24.612Z,1009.54
2023-04-28T07:37:24.663Z,1009.58
2023-04-28T07:38:24.595Z,1009.57
2023-04-28T07:39:24.609Z,1009.59
2023-04-28T07:40:24.570Z,1009.59
2023-04-28T07:41:24.547Z,1009.62
2023-04-28T07:42:24.537Z,1009.65
2023-04-28T07:43:24.549Z,1009.70
2023-04-28T07:44:24.564Z,1009.66
2023-04-28T07:45:24.636Z,1009.69
2023-04-28T07:46:24.628Z,1009.63
2023-04-28T07:47:24.588Z,1009.63
2023-04-28T07:48:24.557Z,1009.57
2023-04-28T07:49:24.450Z,1009.56
2023-04-28T07:50:24.393Z,1009.59
2023-04-28T07:51:24.466Z,1009.55
2023-04-28T07:52:24.390Z,1009.59
2023-04-28T07:53:24.369Z,1009.60
2023-04-28T07:54:24.364Z,1009.62
2023-04-28T07:55:24.407Z,1009.66
2023-04-28T07:56:24.377Z,1009.68
2023-04-28T07:57:24.442Z,1009.68
2023-04-28T07:58:24.349Z,1009.68
2023-04-28T07:59:24.320Z,1009.69
2023-04-28T08:00:24.272Z,1009.68
2023-04-28T08:01:24.282Z,1009.67
2023-04-28T08:02:24.340Z,1009.63
2023-04-28T08:03:24.475Z,1009.65
2023-04-28T08:04:24.779Z,1009.64
2023-04-28T08:05:24.342Z,1009.67
2023-04-28T08:06:24.164Z,1009.63
2023-04-28T08:07:24.203Z,1009.62
2023-04-28T08:08:24.329Z,1009.61
2023-04-28T08:09:24.175Z,1009.60
2023-04-28T08:10:24.291Z,1009.57
2023-04-28T08:11:24.262Z,1009.61
2023-04-28T08:12:24.280Z,1009.56
2023-04-28T08:13:24.725Z,1009.54
2023-04-28T08:14:24.097Z,1009.56
2023-04-28T08:15:24.118Z,1009.48
2023-04-28T08:16:24.102Z,1009.43
2023-04-28T08:17:24.127Z,1009.46
2023-04-28T08:18:24.191Z,1009.45
2023-04-28T08:19:24.027Z,1009.47
2023-04-28T08:20:24.919Z,1009.43
2023-04-28T08:21:23.983Z,1009.46
2023-04-28T08:22:30.919Z,1009.47
2023-04-28T08:23:24.542Z,1009.45
2023-04-28T08:24:24.345Z,1009.43
2023-04-28T08:25:23.994Z,1009.39
2023-04-28T08:26:23.925Z,1009.39
2023-04-28T08:27:28.902Z,1009.34
2023-04-28T08:28:24.711Z,1009.36
2023-04-28T08:29:23.873Z,1009.41
2023-04-28T08:30:23.859Z,1009.40
2023-04-28T08:31:23.954Z,1009.42
2023-04-28T08:32:23.996Z,1009.47
2023-04-28T08:33:23.878Z,1009.44
2023-04-28T08:34:24.337Z,1009.45
2023-04-28T08:35:23.847Z,1009.42
2023-04-28T08:36:23.810Z,1009.34
2023-04-28T08:37:23.908Z,1009.35
2023-04-28T08:38:24.109Z,1009.34
2023-04-28T08:39:23.934Z,1009.37
2023-04-28T08:40:23.800Z,1009.32
2023-04-28T08:41:23.763Z,1009.35
2023-04-28T08:42:23.818Z,1009.34
2023-04-28T08:43:23.787Z,1009.39
2023-04-28T08:44:23.960Z,1009.35
2023-04-28T08:45:23.665Z,1009.39
2023-04-28T08:46:23.701Z,1009.38
2023-04-28T08:47:23.933Z,1009.41
2023-04-28T08:48:24.035Z,1009.36
2023-04-28T08:49:23.954Z,1009.35
2023-04-28T08:50:23.586Z,1009.35
2023-04-28T08:51:23.666Z,1009.34
2023-04-28T08:52:28.963Z,1009.34
2023-04-28T08:53:23.597Z,1009.31
2023-04-28T08:54:28.480Z,1009.33
2023-04-28T08:55:23.561Z,1009.29
2023-04-28T08:56:23.517Z,1009.31
2023-04-28T08:57:23.497Z,1009.30
2023-04-28T08:58:23.562Z,1009.31
2023-04-28T08:59:24.999Z,1009.33
2023-04-28T09:00:23.710Z,1009.31
2023-04-28T09:01:23.538Z,1009.34
2023-04-28T09:02:24.525Z,1009.39
2023-04-28T09:03:23.575Z,1009.40
2023-04-28T09:04:23.814Z,1009.36
2023-04-28T09:05:23.555Z,1009.39
2023-04-28T09:06:23.472Z,1009.42
2023-04-28T09:07:23.433Z,1009.40
2023-04-28T09:08:23.511Z,1009.40
2023-04-28T09:09:23.420Z,1009.41
2023-04-28T09:10:23.370Z,1009.46
2023-04-28T09:11:23.311Z,1009.47
2023-04-28T09:12:23.300Z,1009.49
2023-04-28T09:13:23.288Z,1009.43
2023-04-28T09:14:23.266Z,1009.41
2023-04-28T09:15:23.264Z,1009.40
2023-04-28T09:16:23.315Z,1009.38
2023-04-28T09:17:23.320Z,1009.35
2023-04-28T09:18:23.236Z,1009.33
2023-04-28T09:19:23.221Z,1009.33
2023-04-28T09:20:23.296Z,1009.33
2023-04-28T09:21:23.190Z,1009.33
2023-04-28T09:22:26.854Z,1009.33
2023-04-28T09:23:23.233Z,1009.32
2023-04-28T09:24:23.160Z,1009.35
2023-04-28T09:25:23.256Z,1009.39
2023-04-28T09:26:23.132Z,1009.38
2023-04-28T09:27:23.228Z,1009.40
2023-04-28T09:28:23.146Z,1009.42
2023-04-28T09:29:23.079Z,1009.40
2023-04-28T09:30:23.062Z,1009.42
2023-04-28T09:31:23.174Z,1009.37
2023-04-28T09:32:23.401Z,1009.37
2023-04-28T09:33:23.140Z,1009.39
2023-04-28T09:34:23.000Z,1009.38
2023-04-28T09:35:23.041Z,1009.36
2023-04-28T09:36:23.139Z,1009.29
2023-04-28T09:37:23.019Z,1009.31
2023-04-28T09:38:23.027Z,1009.31
2023-04-28T09:39:22.975Z,1009.33
2023-04-28T09:40:22.990Z,1009.32
2023-04-28T09:41:22.960Z,1009.32
2023-04-28T09:42:22.955Z,1009.32
2023-04-28T09:43:23.045Z,1009.30
2023-04-28T09:44:23.117Z,1009.24
2023-04-28T09:45:22.922Z,1009.32
2023-04-28T09:46:23.000Z,1009.30
2023-04-28T09:47:22.868Z,1009.29
2023-04-28T09:48:22.858Z,1009.29
2023-04-28T09:49:22.892Z,1009.30
2023-04-28T09:50:22.815Z,1009.33
2023-04-28T09:51:22.879Z,1009.28
2023-04-28T09:52:22.950Z,1009.30
2023-04-28T09:53:22.972Z,1009.30
2023-04-28T09:54:22.808Z,1009.25
2023-04-28T09:55:22.733Z,1009.26
2023-04-28T09:56:24.614Z,1009.28
2023-04-28T09:57:22.755Z,1009.27
2023-04-28T09:58:22.784Z,1009.26
2023-04-28T09:59:22.752Z,1009.24
2023-04-28T10:00:22.652Z,1009.21
2023-04-28T10:01:22.750Z,1009.21
2023-04-28T10:02:42.793Z,1009.19
2023-04-28T10:03:24.622Z,1009.22
2023-04-28T10:04:22.848Z,1009.19
2023-04-28T10:05:23.013Z,1009.22
2023-04-28T10:06:22.601Z,1009.18
2023-04-28T10:07:22.611Z,1009.20
2023-04-28T10:08:22.736Z,1009.17
2023-04-28T10:10:22.528Z,1009.13
2023-04-28T10:11:22.608Z,1009.12
2023-04-28T10:12:22.487Z,1009.14
2023-04-28T10:13:22.471Z,1009.07
2023-04-28T10:14:22.501Z,1009.05
2023-04-28T10:15:22.511Z,1009.07
2023-04-28T10:16:22.457Z,1009.09
2023-04-28T10:17:22.552Z,1009.06
2023-04-28T10:18:22.489Z,1009.14
2023-04-28T10:19:22.451Z,1009.11
2023-04-28T10:20:22.445Z,1009.11
2023-04-28T10:21:22.426Z,1009.10
2023-04-28T10:22:22.401Z,1009.06
2023-04-28T10:23:22.349Z,1009.05
2023-04-28T10:24:22.394Z,1009.02
2023-04-28T10:25:22.348Z,1009.08
2023-04-28T10:26:22.361Z,1009.07
2023-04-28T10:27:22.349Z,1009.05
2023-04-28T10:28:22.431Z,1009.08
2023-04-28T10:29:22.246Z,1009.07
2023-04-28T10:30:27.951Z,1009.09
2023-04-28T10:31:23.365Z,1009.07
2023-04-28T10:32:22.268Z,1009.06
2023-04-28T10:33:22.367Z,1009.05
2023-04-28T10:34:22.201Z,1009.04
2023-04-28T10:35:22.159Z,1009.08
2023-04-28T10:36:35.745Z,1009.09
2023-04-28T10:37:23.211Z,1009.08
2023-04-28T10:38:22.141Z,1009.12
2023-04-28T10:39:22.238Z,1009.16
2023-04-28T10:40:22.212Z,1009.18
2023-04-28T10:41:22.065Z,1009.17
2023-04-28T10:42:22.058Z,1009.17
2023-04-28T10:43:22.113Z,1009.13
2023-04-28T10:44:22.064Z,1009.14
2023-04-28T10:45:22.023Z,1009.16
2023-04-28T10:46:22.027Z,1009.15
2023-04-28T10:47:22.110Z,1009.22
2023-04-28T10:48:22.091Z,1009.17
2023-04-28T10:49:22.031Z,1009.19
2023-04-28T10:50:26.481Z,1009.20
2023-04-28T10:51:22.987Z,1009.17
2023-04-28T10:52:21.957Z,1009.19
2023-04-28T10:53:21.902Z,1009.21
2023-04-28T10:54:21.933Z,1009.17
2023-04-28T10:55:22.607Z,1009.09
2023-04-28T10:56:21.918Z,1009.13
2023-04-28T10:57:21.903Z,1009.12
2023-04-28T10:58:21.866Z,1009.13
2023-04-28T10:59:21.865Z,1009.18
2023-04-28T11:00:21.861Z,1009.11
2023-04-28T11:01:22.077Z,1009.15
2023-04-28T11:02:21.871Z,1009.12
2023-04-28T11:03:21.835Z,1009.13
2023-04-28T11:04:21.947Z,1009.14
2023-04-28T11:05:21.909Z,1009.14
2023-04-28T11:06:21.812Z,1009.13
2023-04-28T11:07:21.720Z,1009.10
2023-04-28T11:08:21.789Z,1009.07
2023-04-28T11:09:21.728Z,1009.05
2023-04-28T11:10:21.726Z,1009.03
2023-04-28T11:11:21.782Z,1009.05
2023-04-28T11:12:21.707Z,1009.11
2023-04-28T11:13:21.661Z,1009.08
2023-04-28T11:14:21.626Z,1009.10
2023-04-28T11:15:21.699Z,1009.09
2023-04-28T11:16:21.735Z,1009.09
2023-04-28T11:17:21.586Z,1009.11
2023-04-28T11:18:21.650Z,1009.12
2023-04-28T11:19:21.566Z,1009.11
2023-04-28T11:20:21.578Z,1009.11
2023-04-28T11:21:21.539Z,1009.11
2023-04-28T11:22:21.567Z,1009.13
2023-04-28T11:23:21.562Z,1009.10
2023-04-28T11:24:21.487Z,1009.09
2023-04-28T11:25:21.495Z,1009.09
2023-04-28T11:26:21.520Z,1009.06
2023-04-28T11:27:21.475Z,1009.09
2023-04-28T11:28:21.457Z,1009.12
2023-04-28T11:29:21.499Z,1009.07
2023-04-28T11:30:21.515Z,1009.09
2023-04-28T11:31:21.560Z,1009.09
2023-04-28T11:32:21.393Z,1009.03
2023-04-28T11:33:21.430Z,1009.07
2023-04-28T11:34:21.423Z,1009.04
2023-04-28T11:35:21.466Z,1009.10
2023-04-28T11:36:21.308Z,1009.11
2023-04-28T11:37:21.331Z,1009.08
2023-04-28T11:38:21.334Z,1009.07
2023-04-28T11:39:21.301Z,1009.09
2023-04-28T11:40:21.337Z,1009.10
2023-04-28T11:41:21.348Z,1009.09
2023-04-28T11:42:21.297Z,1009.06
2023-04-28T11:43:21.214Z,1009.09
2023-04-28T11:44:21.217Z,1009.13
2023-04-28T11:45:21.210Z,1009.13
2023-04-28T11:46:21.249Z,1009.08
2023-04-28T11:47:21.180Z,1009.10
2023-04-28T11:48:21.208Z,1009.11
2023-04-28T11:49:21.181Z,1009.07
2023-04-28T11:50:21.255Z,1009.05
2023-04-28T11:51:21.129Z,1009.05
2023-04-28T11:52:21.145Z,1009.14
2023-04-28T11:53:22.215Z,1009.11
2023-04-28T11:54:21.085Z,1009.09
2023-04-28T11:55:21.080Z,1009.13
2023-04-28T11:56:21.104Z,1009.05
2023-04-28T11:57:21.080Z,1009.07
2023-04-28T11:58:21.058Z,1009.03
2023-04-28T11:59:21.576Z,1009.02
2023-04-28T12:00:21.011Z,1009.10
2023-04-28T12:01:21.011Z,1009.11
2023-04-28T12:02:21.104Z,1009.08
2023-04-28T12:03:21.188Z,1009.09
2023-04-28T12:04:21.122Z,1009.11
2023-04-28T12:05:21.058Z,1009.10
2023-04-28T12:06:20.974Z,1009.08